This is the latest recevied weather packets stored in our database for station/object DL6ABE-13. If no packets are shown the sender has not sent any weather packets the latest 10 day(s).
| Time | Temp. | Humidity | Pressure | Rain* | Wind** | Luminosity | Snow |
|---|---|---|---|---|---|---|---|
| 1777123293 | 20° C | 38% | 1013.6 hPa | - | - | - | - |
| 1777119705 | 19.44° C | 42% | 1013.8 hPa | - | - | - | - |
| 1777116674 | 18.33° C | 51% | 1014.1 hPa | - | - | - | - |
| 1777113663 | 17.78° C | 57% | 1014.5 hPa | - | - | - | - |
| 1777110073 | 15° C | 62% | 1014.6 hPa | - | - | - | - |
| 1777108246 | 14.44° C | 62% | 1014.7 hPa | - | - | - | - |
| 1777105838 | 13.33° C | 66% | 1014.9 hPa | - | - | - | - |
| 1777102226 | 11.11° C | 69% | 1015.1 hPa | - | - | - | - |
| 1777101623 | 11.11° C | 70% | 1015 hPa | - | - | - | - |
| 1777098636 | 8.33° C | 76% | 1015 hPa | - | - | - | - |
| 1777095605 | 5° C | 81% | 1014.7 hPa | - | - | - | - |
| 1777095024 | 5° C | 81% | 1014.7 hPa | - | - | - | - |
| 1777092595 | 5° C | 80% | 1014.6 hPa | - | - | - | - |
| 1777090809 | 5.56° C | 78% | 1014.4 hPa | - | - | - | - |
| 1777090185 | 6.11° C | 77% | 1014.3 hPa | - | - | - | - |
| 1777085992 | 8.33° C | 71% | 1014.5 hPa | - | - | - | - |
| 1777085370 | 8.89° C | 70% | 1014.5 hPa | - | - | - | - |
| 1777074534 | 10° C | 65% | 1014.9 hPa | - | - | - | - |
| 1777073328 | 10° C | 65% | 1015.1 hPa | - | - | - | - |
| 1777072141 | 10° C | 64% | 1015.1 hPa | - | - | - | - |
| 1777066751 | 11.67° C | 59% | 1015.3 hPa | - | - | - | - |
| 1777066104 | 11.67° C | 58% | 1015.2 hPa | - | - | - | - |
| 1777063095 | 13.33° C | 56% | 1014.9 hPa | - | - | - | - |
| 1777060087 | 15° C | 48% | 1014.8 hPa | - | - | - | - |
| 1777048045 | 20.56° C | 34% | 1014.9 hPa | - | - | - | - |
* Rain since midnight (hover to see other rain measurements)
** Current wind speed in m/s (hover to see current wind gust speed)